TimeCDT,TemperatureF,Dew PointF,Humidity,Sea Level PressureIn,VisibilityMPH,Wind Direction,Wind SpeedMPH,Gust SpeedMPH,PrecipitationIn,Events,Conditions,WindDirDegrees,DateUTC
12:15 AM,80.6,62.6,54,30.17,10.0,ESE,8.1,-,N/A,,Clear,110,2013-08-26 05:15:00
12:35 AM,78.8,62.6,57,30.16,10.0,East,8.1,-,N/A,,Clear,100,2013-08-26 05:35:00
12:55 AM,78.8,62.6,57,30.17,10.0,East,5.8,-,N/A,,Clear,100,2013-08-26 05:55:00
1:15 AM,77.0,62.6,61,30.17,10.0,East,6.9,-,N/A,,Clear,100,2013-08-26 06:15:00
1:35 AM,77.0,62.6,61,30.16,10.0,ESE,6.9,-,N/A,,Clear,110,2013-08-26 06:35:00
1:55 AM,77.0,62.6,61,30.16,10.0,ESE,6.9,-,N/A,,Clear,110,2013-08-26 06:55:00
2:15 AM,77.0,62.6,61,30.15,10.0,ESE,8.1,-,N/A,,Clear,120,2013-08-26 07:15:00
2:35 AM,77.0,62.6,61,30.16,10.0,ESE,8.1,-,N/A,,Clear,120,2013-08-26 07:35:00
2:55 AM,77.0,62.6,61,30.16,10.0,SE,6.9,-,N/A,,Clear,130,2013-08-26 07:55:00
3:15 AM,75.2,62.6,65,30.16,10.0,SE,6.9,-,N/A,,Clear,130,2013-08-26 08:15:00
3:35 AM,75.2,62.6,65,30.17,10.0,SE,6.9,-,N/A,,Clear,140,2013-08-26 08:35:00
3:55 AM,75.2,62.6,65,30.17,10.0,SE,6.9,-,N/A,,Clear,140,2013-08-26 08:55:00
4:15 AM,75.2,62.6,65,30.17,10.0,SE,6.9,-,N/A,,Clear,140,2013-08-26 09:15:00
4:35 AM,73.4,62.6,69,30.17,10.0,SSE,5.8,-,N/A,,Clear,150,2013-08-26 09:35:00
4:55 AM,73.4,62.6,69,30.17,10.0,SE,4.6,-,N/A,,Clear,130,2013-08-26 09:55:00
5:15 AM,73.4,62.6,69,30.17,10.0,ESE,3.5,-,N/A,,Clear,110,2013-08-26 10:15:00
5:35 AM,73.4,62.6,69,30.18,10.0,ESE,5.8,-,N/A,,Clear,110,2013-08-26 10:35:00
5:55 AM,73.4,62.6,69,30.18,10.0,ESE,5.8,-,N/A,,Clear,110,2013-08-26 10:55:00
6:15 AM,73.4,62.6,69,30.18,10.0,East,5.8,-,N/A,,Clear,90,2013-08-26 11:15:00
6:35 AM,71.6,62.6,73,30.19,10.0,East,5.8,-,N/A,,Clear,90,2013-08-26 11:35:00
6:55 AM,71.6,62.6,73,30.20,10.0,East,5.8,-,N/A,,Clear,100,2013-08-26 11:55:00
7:15 AM,71.6,62.6,73,30.20,10.0,East,6.9,-,N/A,,Clear,100,2013-08-26 12:15:00
7:35 AM,73.4,62.6,69,30.21,10.0,East,5.8,-,N/A,,Clear,100,2013-08-26 12:35:00
7:55 AM,75.2,64.4,69,30.21,10.0,East,6.9,-,N/A,,Clear,100,2013-08-26 12:55:00
8:15 AM,75.2,64.4,69,30.21,10.0,SE,8.1,-,N/A,,Clear,130,2013-08-26 13:15:00
8:35 AM,78.8,64.4,61,30.21,10.0,SE,9.2,-,N/A,,Clear,130,2013-08-26 13:35:00
8:55 AM,80.6,66.2,61,30.21,10.0,ESE,5.8,-,N/A,,Clear,120,2013-08-26 13:55:00
9:15 AM,80.6,66.2,61,30.21,10.0,SE,9.2,-,N/A,,Clear,140,2013-08-26 14:15:00
9:35 AM,82.4,66.2,58,30.22,10.0,SE,11.5,-,N/A,,Clear,130,2013-08-26 14:35:00
9:55 AM,84.2,66.2,55,30.22,10.0,SE,9.2,-,N/A,,Clear,130,2013-08-26 14:55:00
10:15 AM,84.2,66.2,55,30.22,10.0,SE,10.4,16.1,N/A,,Clear,130,2013-08-26 15:15:00
10:35 AM,86.0,66.2,51,30.22,10.0,SE,13.8,-,N/A,,Partly Cloudy,140,2013-08-26 15:35:00
10:55 AM,87.8,66.2,49,30.21,10.0,SE,12.7,-,N/A,,Partly Cloudy,140,2013-08-26 15:55:00
11:15 AM,87.8,66.2,49,30.21,10.0,SE,10.4,-,N/A,,Scattered Clouds,130,2013-08-26 16:15:00
11:35 AM,87.8,66.2,49,30.21,10.0,SSE,12.7,-,N/A,,Mostly Cloudy,150,2013-08-26 16:35:00
11:55 AM,89.6,66.2,46,30.21,10.0,ESE,12.7,16.1,N/A,,Scattered Clouds,110,2013-08-26 16:55:00
12:15 PM,89.6,64.4,43,30.20,10.0,SE,16.1,19.6,N/A,,Mostly Cloudy,140,2013-08-26 17:15:00
12:35 PM,89.6,64.4,43,30.20,10.0,ESE,11.5,16.1,N/A,,Scattered Clouds,110,2013-08-26 17:35:00
12:55 PM,91.4,64.4,41,30.19,10.0,SE,9.2,21.9,N/A,,Scattered Clouds,140,2013-08-26 17:55:00
1:15 PM,91.4,64.4,41,30.18,10.0,SE,8.1,-,N/A,,Partly Cloudy,130,2013-08-26 18:15:00
1:35 PM,91.4,64.4,41,30.17,10.0,ESE,6.9,16.1,N/A,,Scattered Clouds,120,2013-08-26 18:35:00
1:55 PM,91.4,64.4,41,30.16,10.0,SE,17.3,-,N/A,,Partly Cloudy,130,2013-08-26 18:55:00
2:15 PM,93.2,62.6,36,30.15,10.0,ESE,18.4,24.2,N/A,,Partly Cloudy,110,2013-08-26 19:15:00
2:35 PM,93.2,60.8,34,30.14,10.0,ESE,5.8,19.6,N/A,,Partly Cloudy,110,2013-08-26 19:35:00
2:55 PM,95.0,62.6,34,30.14,10.0,SE,12.7,19.6,N/A,,Scattered Clouds,130,2013-08-26 19:55:00
3:15 PM,93.2,60.8,34,30.12,10.0,SE,13.8,18.4,N/A,,Scattered Clouds,130,2013-08-26 20:15:00
3:35 PM,96.8,60.8,30,30.12,10.0,East,15.0,21.9,N/A,,Partly Cloudy,100,2013-08-26 20:35:00
3:55 PM,95.0,60.8,32,30.12,10.0,East,15.0,19.6,N/A,,Partly Cloudy,90,2013-08-26 20:55:00
4:15 PM,95.0,57.2,28,30.11,10.0,ESE,13.8,20.7,N/A,,Partly Cloudy,120,2013-08-26 21:15:00
4:35 PM,95.0,57.2,28,30.10,10.0,East,11.5,-,N/A,,Clear,100,2013-08-26 21:35:00
4:55 PM,95.0,57.2,28,30.09,10.0,ESE,8.1,-,N/A,,Clear,120,2013-08-26 21:55:00
5:15 PM,95.0,57.2,28,30.09,10.0,ESE,13.8,-,N/A,,Partly Cloudy,120,2013-08-26 22:15:00
5:35 PM,93.2,57.2,30,30.09,10.0,ESE,12.7,-,N/A,,Clear,110,2013-08-26 22:35:00
5:55 PM,93.2,57.2,30,30.09,10.0,ESE,12.7,-,N/A,,Partly Cloudy,120,2013-08-26 22:55:00
6:15 PM,93.2,59.0,32,30.09,10.0,ESE,10.4,-,N/A,,Mostly Cloudy,110,2013-08-26 23:15:00
6:35 PM,91.4,59.0,34,30.09,10.0,ESE,13.8,-,N/A,,Mostly Cloudy,120,2013-08-26 23:35:00
6:55 PM,91.4,59.0,34,30.08,10.0,ESE,9.2,-,N/A,,Scattered Clouds,110,2013-08-26 23:55:00
7:15 PM,91.4,60.8,36,30.08,10.0,ESE,11.5,-,N/A,,Partly Cloudy,120,2013-08-27 00:15:00
7:35 PM,89.6,60.8,38,30.09,10.0,SE,8.1,-,N/A,,Clear,130,2013-08-27 00:35:00
7:55 PM,87.8,60.8,40,30.09,10.0,SE,6.9,-,N/A,,Partly Cloudy,130,2013-08-27 00:55:00
8:15 PM,87.8,60.8,40,30.09,10.0,SE,8.1,-,N/A,,Scattered Clouds,130,2013-08-27 01:15:00
8:35 PM,84.2,59.0,42,30.09,10.0,ESE,6.9,-,N/A,,Partly Cloudy,120,2013-08-27 01:35:00
8:55 PM,84.2,60.8,45,30.10,10.0,ESE,8.1,-,N/A,,Clear,120,2013-08-27 01:55:00
9:15 PM,84.2,60.8,45,30.10,10.0,ESE,8.1,-,N/A,,Clear,120,2013-08-27 02:15:00
9:35 PM,82.4,60.8,48,30.10,10.0,ESE,8.1,-,N/A,,Clear,120,2013-08-27 02:35:00
9:55 PM,82.4,60.8,48,30.10,10.0,ESE,6.9,-,N/A,,Clear,110,2013-08-27 02:55:00
10:15 PM,82.4,60.8,48,30.10,10.0,ESE,6.9,-,N/A,,Clear,110,2013-08-27 03:15:00
10:35 PM,80.6,60.8,51,30.10,10.0,ESE,6.9,-,N/A,,Clear,110,2013-08-27 03:35:00
10:55 PM,80.6,60.8,51,30.10,10.0,East,6.9,-,N/A,,Clear,100,2013-08-27 03:55:00
11:15 PM,80.6,60.8,51,30.11,10.0,SSE,8.1,-,N/A,,Clear,150,2013-08-27 04:15:00
11:35 PM,78.8,60.8,54,30.11,10.0,SSE,5.8,-,N/A,,Clear,160,2013-08-27 04:35:00
11:55 PM,78.8,60.8,54,30.12,10.0,SSE,5.8,-,N/A,,Clear,160,2013-08-27 04:55:00